Terminal Aerodrome Forecast
Issued by NWS

Home | Current Version | Previous Version | Text Only | Print | Product List | Glossary On
Versions: 1 2 3 4 5 6 7 8 9 10 11 12 13 14
000
FTUS45 KTFX 022300
TAFGTF
TAF
KGTF 022335Z 0300/0324 22012G20KT P6SM FEW080 SCT200
     FM030700 25011KT P6SM SCT080 BKN150
     FM031300 28012G20KT P6SM SCT040 BKN080
     FM032000 30011KT P6SM VCSH SCT035 BKN050=

USA.gov is the U.S. government's official web portal to all federal, state and local government web resources and services.